Terminal Aerodrome Forecast
Issued by NWS Paducah, KY

Home | Current Version | Previous Version | Text Only | Print | Product List | Glossary Off
Versions: 1 2 3 4 5 6 7 8 9 10 11 12 13 14 15 16 17

000
FTUS43 KPAH 301700
TAFPAH
TAF
KPAH 301720Z 3018/3118 02006KT P6SM SCT300
     FM310000 00000KT P6SM OVC250
     FM311500 19004KT P6SM OVC120=

USA.gov is the U.S. government's official web portal to all federal, state and local government web resources and services.